createdAt,value
2019-04-26T00:01:22.897Z,15.62
2019-04-26T00:03:52.784Z,15.67
2019-04-26T00:06:22.800Z,15.68
2019-04-26T00:08:54.278Z,15.61
2019-04-26T00:11:29.029Z,15.55
2019-04-26T00:14:00.583Z,15.47
2019-04-26T00:16:48.166Z,15.46
2019-04-26T00:19:18.141Z,15.35
2019-04-26T00:21:48.267Z,15.14
2019-04-26T00:24:19.400Z,15.35
2019-04-26T00:26:49.349Z,15.18
2019-04-26T00:29:19.243Z,15.08
2019-04-26T00:31:49.102Z,15.02
2019-04-26T00:34:19.629Z,15.03
2019-04-26T00:36:50.439Z,15.02
2019-04-26T00:39:20.391Z,14.94
2019-04-26T00:41:50.313Z,14.90
2019-04-26T00:44:20.909Z,14.81
2019-04-26T00:46:51.425Z,14.79
2019-04-26T00:49:22.062Z,14.74
2019-04-26T00:51:52.562Z,14.78
2019-04-26T00:54:24.358Z,14.61
2019-04-26T00:56:55.462Z,14.51
2019-04-26T00:59:25.985Z,14.85
2019-04-26T01:01:57.415Z,14.75
2019-04-26T01:04:27.188Z,14.61
2019-04-26T01:06:59.533Z,14.60
2019-04-26T01:09:29.283Z,14.56
2019-04-26T01:12:01.910Z,14.42
2019-04-26T01:14:31.778Z,14.35
2019-04-26T01:17:01.623Z,14.25
2019-04-26T01:19:33.310Z,14.17
2019-04-26T01:22:05.958Z,14.14
2019-04-26T01:24:37.700Z,14.12
2019-04-26T01:27:08.604Z,14.06
2019-04-26T01:29:38.487Z,14.10
2019-04-26T01:32:11.372Z,14.20
2019-04-26T01:34:42.201Z,14.20
2019-04-26T01:37:12.661Z,14.18
2019-04-26T01:39:47.085Z,14.10
2019-04-26T01:42:35.268Z,13.95
2019-04-26T01:45:10.538Z,13.92
2019-04-26T01:47:40.711Z,13.84
2019-04-26T01:50:12.148Z,13.70
2019-04-26T01:52:44.546Z,13.63
2019-04-26T01:55:16.033Z,13.59
2019-04-26T01:57:45.921Z,13.52
2019-04-26T02:00:33.961Z,13.35
2019-04-26T02:03:17.662Z,13.35
2019-04-26T02:05:47.523Z,13.61
2019-04-26T02:08:17.397Z,13.62
2019-04-26T02:10:47.275Z,13.87
2019-04-26T02:13:17.243Z,13.64
2019-04-26T02:15:47.085Z,13.42
2019-04-26T02:18:16.928Z,13.35
2019-04-26T02:21:07.671Z,13.32
2019-04-26T02:23:38.366Z,13.66
2019-04-26T02:26:26.644Z,13.77
2019-04-26T02:28:56.629Z,13.56
2019-04-26T02:31:28.783Z,13.47
2019-04-26T02:33:59.136Z,13.41
2019-04-26T02:36:48.072Z,13.54
2019-04-26T02:39:05.752Z,13.60
2019-04-26T02:41:37.222Z,13.45
2019-04-26T02:44:09.951Z,13.22
2019-04-26T02:46:44.455Z,13.01
2019-04-26T02:49:21.855Z,12.93
2019-04-26T02:52:03.442Z,12.84
2019-04-26T02:54:47.742Z,12.84
2019-04-26T02:57:20.560Z,12.89
2019-04-26T02:59:53.254Z,12.95
2019-04-26T03:02:24.093Z,13.00
2019-04-26T03:04:56.776Z,13.08
2019-04-26T03:07:33.850Z,12.95
2019-04-26T03:10:04.646Z,12.84
2019-04-26T03:12:39.474Z,12.83
2019-04-26T03:15:30.363Z,12.75
2019-04-26T03:18:18.273Z,12.83
2019-04-26T03:20:50.907Z,12.93
2019-04-26T03:23:56.187Z,12.89
2019-04-26T03:26:43.512Z,12.99
2019-04-26T03:29:25.096Z,12.97
2019-04-26T03:32:00.793Z,12.93
2019-04-26T03:34:54.041Z,12.93
2019-04-26T03:37:47.234Z,12.85
2019-04-26T03:40:38.953Z,12.93
2019-04-26T03:43:17.270Z,13.01
2019-04-26T03:46:13.934Z,13.17
2019-04-26T03:48:49.177Z,13.12
2019-04-26T03:51:41.054Z,13.19
2019-04-26T03:54:13.848Z,13.29
2019-04-26T03:56:48.303Z,13.42
2019-04-26T03:59:25.605Z,13.63
2019-04-26T04:01:59.985Z,13.72
2019-04-26T04:04:36.959Z,13.72
2019-04-26T04:07:08.923Z,13.76
2019-04-26T04:09:42.867Z,13.87
2019-04-26T04:12:21.765Z,14.03
2019-04-26T04:14:57.631Z,14.29
2019-04-26T04:17:34.776Z,14.52
2019-04-26T04:20:20.644Z,14.75
2019-04-26T04:23:14.502Z,14.92
2019-04-26T04:25:48.822Z,15.10
2019-04-26T04:28:36.267Z,15.34
2019-04-26T04:31:27.130Z,15.54
2019-04-26T04:34:08.336Z,15.73
2019-04-26T04:36:48.844Z,15.92
2019-04-26T04:39:23.640Z,16.16
2019-04-26T04:42:21.580Z,16.39
2019-04-26T04:45:04.638Z,16.70
2019-04-26T04:48:20.463Z,17.00
2019-04-26T04:51:11.471Z,17.10
2019-04-26T04:53:49.900Z,17.19
2019-04-26T04:56:54.132Z,17.39
2019-04-26T04:59:29.679Z,17.48
2019-04-26T05:02:12.835Z,17.73
2019-04-26T05:04:51.081Z,17.94
2019-04-26T05:07:32.671Z,18.19
2019-04-26T05:10:17.095Z,18.41
2019-04-26T05:12:58.819Z,18.58
2019-04-26T05:15:36.083Z,18.71
2019-04-26T05:18:29.967Z,18.84
2019-04-26T05:21:17.640Z,18.98
2019-04-26T05:23:51.415Z,19.24
2019-04-26T05:26:46.011Z,19.55
2019-04-26T05:29:54.111Z,19.82
2019-04-26T05:32:54.730Z,20.12
2019-04-26T05:35:49.085Z,20.34
2019-04-26T05:38:38.573Z,20.47
2019-04-26T05:41:33.862Z,20.30
2019-04-26T05:44:22.981Z,20.27
2019-04-26T05:47:33.609Z,20.30
2019-04-26T05:50:10.840Z,20.23
2019-04-26T05:53:10.602Z,20.21
2019-04-26T05:55:59.853Z,20.15
2019-04-26T05:58:38.245Z,20.28
2019-04-26T06:01:21.533Z,20.23
2019-04-26T06:04:28.681Z,20.30
2019-04-26T06:07:11.588Z,20.43
2019-04-26T06:09:58.624Z,20.52
2019-04-26T06:12:38.718Z,20.77
2019-04-26T06:15:15.884Z,21.05
2019-04-26T06:18:01.859Z,21.01
2019-04-26T06:20:46.639Z,21.44
2019-04-26T06:23:22.090Z,21.45
2019-04-26T06:26:33.692Z,21.39
2019-04-26T06:29:34.961Z,21.34
2019-04-26T06:32:25.648Z,21.41
2019-04-26T06:35:20.132Z,21.61
2019-04-26T06:38:03.999Z,21.85
2019-04-26T06:40:48.542Z,22.06
2019-04-26T06:43:22.390Z,22.44
2019-04-26T06:46:05.479Z,22.48
2019-04-26T06:48:45.649Z,23.14
2019-04-26T06:51:24.836Z,25.17
2019-04-26T06:53:58.679Z,27.37
2019-04-26T06:56:48.227Z,28.45
2019-04-26T06:59:40.462Z,29.63
2019-04-26T07:02:19.282Z,30.72
2019-04-26T07:05:00.780Z,31.77
2019-04-26T07:07:33.514Z,33.08
2019-04-26T07:10:06.371Z,34.34
2019-04-26T07:12:40.686Z,34.95
2019-04-26T07:15:45.106Z,34.94
2019-04-26T07:18:23.882Z,35.18
2019-04-26T07:20:58.302Z,35.73
2019-04-26T07:23:47.438Z,36.37
2019-04-26T07:26:36.525Z,36.62
2019-04-26T07:29:31.527Z,37.09
2019-04-26T07:32:28.198Z,37.11
2019-04-26T07:35:30.087Z,37.10
2019-04-26T07:38:09.069Z,37.87
2019-04-26T07:40:52.318Z,38.18
2019-04-26T07:43:48.938Z,38.40
2019-04-26T07:46:54.799Z,38.57
2019-04-26T07:50:00.473Z,39.66
2019-04-26T07:52:51.143Z,40.07
2019-04-26T07:55:47.951Z,40.63
2019-04-26T07:58:42.414Z,39.77
2019-04-26T08:01:41.541Z,40.01
2019-04-26T08:04:18.476Z,40.30
2019-04-26T08:07:10.423Z,40.24
2019-04-26T08:09:46.184Z,40.85
2019-04-26T08:12:18.725Z,40.85
2019-04-26T08:14:58.630Z,41.45
2019-04-26T08:17:35.553Z,42.00
2019-04-26T08:20:13.974Z,41.98
2019-04-26T08:22:46.950Z,42.22
2019-04-26T08:25:19.532Z,42.50
2019-04-26T08:27:53.449Z,43.13
2019-04-26T08:30:25.236Z,42.77
2019-04-26T08:32:57.970Z,42.96
2019-04-26T08:35:30.432Z,42.72
2019-04-26T08:38:07.960Z,42.54
2019-04-26T08:40:35.565Z,43.27
2019-04-26T08:43:27.307Z,44.06
2019-04-26T08:46:03.220Z,44.88
2019-04-26T08:48:46.721Z,45.27
2019-04-26T08:51:20.646Z,45.20
2019-04-26T08:53:53.142Z,44.73
2019-04-26T08:56:28.370Z,44.64
2019-04-26T08:59:01.140Z,44.67
2019-04-26T09:01:41.995Z,45.26
2019-04-26T09:04:15.665Z,45.14
2019-04-26T09:07:07.854Z,44.93
2019-04-26T09:09:41.512Z,45.25
2019-04-26T09:12:22.850Z,45.72
2019-04-26T09:14:48.800Z,45.86
2019-04-26T09:17:18.704Z,46.23
2019-04-26T09:19:48.845Z,46.19
2019-04-26T09:22:32.263Z,46.66
2019-04-26T09:25:03.737Z,46.88
2019-04-26T09:27:35.420Z,46.95
2019-04-26T09:30:11.360Z,46.77
2019-04-26T09:33:02.007Z,47.53
2019-04-26T09:35:30.729Z,48.22
2019-04-26T09:38:00.649Z,48.16
2019-04-26T09:40:30.763Z,47.72
2019-04-26T09:43:20.393Z,47.35
2019-04-26T09:46:08.033Z,46.88
2019-04-26T09:48:57.804Z,45.87
2019-04-26T09:51:27.712Z,45.68
2019-04-26T09:53:58.543Z,46.41
2019-04-26T09:56:28.386Z,46.83
2019-04-26T09:59:01.533Z,47.16
2019-04-26T10:01:30.462Z,47.35
2019-04-26T10:04:00.279Z,47.58
2019-04-26T10:06:30.998Z,47.74
2019-04-26T10:09:02.495Z,48.10
2019-04-26T10:11:35.513Z,48.20
2019-04-26T10:14:06.915Z,47.69
2019-04-26T10:16:44.493Z,46.51
2019-04-26T10:19:14.763Z,45.04
2019-04-26T10:21:44.592Z,45.00
2019-04-26T10:24:14.362Z,45.89
2019-04-26T10:26:44.303Z,47.67
2019-04-26T10:29:14.124Z,48.77
2019-04-26T10:31:47.532Z,49.00
2019-04-26T10:34:15.723Z,49.56
2019-04-26T10:36:45.609Z,50.52
2019-04-26T10:39:17.063Z,51.43
2019-04-26T10:41:46.964Z,53.13
2019-04-26T10:44:16.801Z,53.45
2019-04-26T10:46:55.301Z,53.56
2019-04-26T10:49:37.397Z,53.54
2019-04-26T10:52:12.052Z,53.79
2019-04-26T10:54:46.006Z,54.80
2019-04-26T10:57:17.256Z,54.98
2019-04-26T10:59:51.660Z,55.37
2019-04-26T11:02:21.608Z,55.06
2019-04-26T11:04:51.433Z,54.75
2019-04-26T11:07:21.212Z,52.05
2019-04-26T11:09:51.138Z,49.66
2019-04-26T11:12:21.410Z,49.85
2019-04-26T11:14:53.329Z,50.82
2019-04-26T11:17:22.964Z,49.67
2019-04-26T11:19:52.851Z,48.83
2019-04-26T11:22:29.370Z,47.52
2019-04-26T11:24:55.091Z,47.76
2019-04-26T11:27:25.003Z,48.02
2019-04-26T11:29:55.028Z,48.99
2019-04-26T11:32:24.935Z,49.52
2019-04-26T11:34:58.755Z,46.19
2019-04-26T11:37:26.452Z,46.25
2019-04-26T11:39:56.289Z,46.02
2019-04-26T11:42:26.222Z,42.02
2019-04-26T11:45:05.753Z,41.77
2019-04-26T11:47:27.725Z,40.72
2019-04-26T11:49:57.704Z,40.91
2019-04-26T11:52:27.602Z,39.75
2019-04-26T11:54:57.522Z,41.11
2019-04-26T11:57:27.420Z,42.61
2019-04-26T11:59:57.333Z,39.93
2019-04-26T12:02:27.296Z,36.60
2019-04-26T12:05:06.952Z,36.09
2019-04-26T12:07:38.356Z,34.27
2019-04-26T12:10:11.338Z,36.51
2019-04-26T12:12:43.084Z,37.06
2019-04-26T12:15:12.963Z,37.29
2019-04-26T12:17:42.190Z,37.10
2019-04-26T12:20:12.010Z,37.02
2019-04-26T12:22:43.332Z,35.37
2019-04-26T12:25:13.507Z,35.31
2019-04-26T12:27:43.531Z,34.40
2019-04-26T12:30:13.169Z,36.34
2019-04-26T12:32:42.956Z,38.30
2019-04-26T12:35:15.484Z,37.57
2019-04-26T12:37:45.376Z,38.80
2019-04-26T12:40:14.642Z,38.54
2019-04-26T12:42:47.344Z,37.86
2019-04-26T12:45:23.716Z,37.40
2019-04-26T12:47:57.938Z,37.27
2019-04-26T12:50:29.492Z,37.37
2019-04-26T12:52:59.415Z,37.73
2019-04-26T12:55:29.344Z,34.65
2019-04-26T12:57:59.177Z,32.05
2019-04-26T13:00:33.194Z,31.49
2019-04-26T13:03:03.397Z,33.10
2019-04-26T13:05:33.301Z,35.04
2019-04-26T13:08:03.267Z,32.55
2019-04-26T13:10:35.605Z,34.66
2019-04-26T13:13:07.989Z,35.31
2019-04-26T13:16:01.142Z,37.13
2019-04-26T13:18:31.838Z,34.26
2019-04-26T13:21:03.128Z,34.98
2019-04-26T13:23:36.747Z,35.63
2019-04-26T13:26:06.761Z,34.27
2019-04-26T13:28:36.572Z,33.85
2019-04-26T13:31:06.408Z,33.61
2019-04-26T13:33:36.327Z,33.33
2019-04-26T13:36:06.338Z,34.48
2019-04-26T13:38:39.294Z,34.49
2019-04-26T13:41:07.854Z,32.94
2019-04-26T13:43:37.694Z,32.34
2019-04-26T13:46:18.231Z,31.11
2019-04-26T13:49:05.879Z,30.98
2019-04-26T13:51:37.406Z,30.32
2019-04-26T13:54:07.304Z,30.33
2019-04-26T13:56:37.584Z,30.14
2019-04-26T13:59:07.666Z,30.66
2019-04-26T14:01:37.510Z,30.66
2019-04-26T14:04:08.915Z,29.30
2019-04-26T14:06:40.794Z,28.88
2019-04-26T14:09:12.067Z,29.66
2019-04-26T14:11:42.317Z,30.27
2019-04-26T14:14:12.233Z,29.80
2019-04-26T14:16:42.167Z,30.26
2019-04-26T14:19:15.564Z,30.76
2019-04-26T14:21:43.832Z,31.17
2019-04-26T14:24:19.656Z,32.25
2019-04-26T14:26:51.450Z,31.55
2019-04-26T14:29:21.333Z,31.52
2019-04-26T14:31:53.022Z,31.42
2019-04-26T14:34:23.154Z,31.35
2019-04-26T14:37:05.565Z,31.17
2019-04-26T14:39:38.216Z,31.51
2019-04-26T14:41:57.032Z,30.18
2019-04-26T14:44:31.362Z,30.19
2019-04-26T14:47:12.699Z,30.51
2019-04-26T14:49:38.911Z,30.30
2019-04-26T14:52:02.441Z,28.01
2019-04-26T14:54:32.388Z,27.88
2019-04-26T14:57:07.696Z,26.95
2019-04-26T14:59:52.813Z,27.38
2019-04-26T15:02:36.087Z,28.04
2019-04-26T15:05:24.475Z,27.94
2019-04-26T15:07:54.370Z,27.46
2019-04-26T15:10:25.891Z,27.26
2019-04-26T15:13:11.636Z,27.19
2019-04-26T15:15:32.073Z,27.44
2019-04-26T15:17:59.617Z,27.63
2019-04-26T15:20:30.430Z,27.71
2019-04-26T15:23:00.276Z,27.16
2019-04-26T15:25:30.127Z,26.96
2019-04-26T15:28:00.054Z,26.71
2019-04-26T15:30:34.269Z,26.71
2019-04-26T15:33:03.130Z,26.67
2019-04-26T15:35:35.818Z,26.27
2019-04-26T15:38:06.188Z,25.60
2019-04-26T15:40:54.103Z,24.97
2019-04-26T15:43:32.742Z,24.41
2019-04-26T15:46:17.310Z,24.10
2019-04-26T15:48:50.352Z,23.72
2019-04-26T15:51:24.456Z,23.76
2019-04-26T15:53:53.642Z,23.64
2019-04-26T15:56:23.571Z,23.53
2019-04-26T15:58:53.448Z,23.40
2019-04-26T16:01:23.342Z,23.19
2019-04-26T16:03:54.230Z,23.23
2019-04-26T16:09:58.327Z,23.05
2019-04-26T16:12:29.122Z,22.92
2019-04-26T16:15:02.448Z,22.74
2019-04-26T16:17:36.319Z,22.64
2019-04-26T16:20:13.711Z,22.51
2019-04-26T16:22:43.709Z,22.38
2019-04-26T16:25:15.087Z,22.30
2019-04-26T16:27:44.919Z,22.25
2019-04-26T16:30:37.511Z,22.03
2019-04-26T16:33:07.665Z,22.04
2019-04-26T16:35:44.824Z,21.82
2019-04-26T16:38:38.843Z,21.55
2019-04-26T16:41:09.042Z,21.30
2019-04-26T16:43:44.690Z,20.96
2019-04-26T16:48:47.630Z,20.52
2019-04-26T16:51:17.573Z,20.32
2019-04-26T16:54:05.307Z,20.49
2019-04-26T16:56:25.742Z,20.30
2019-04-26T16:58:54.832Z,20.10
2019-04-26T17:00:45.680Z,20.71
2019-04-26T17:01:23.771Z,19.88
2019-04-26T17:03:53.766Z,19.81
2019-04-26T17:06:23.657Z,19.61
2019-04-26T17:09:00.857Z,19.50
2019-04-26T17:11:25.254Z,19.44
2019-04-26T17:13:57.032Z,19.49
2019-04-26T17:16:29.656Z,19.74
2019-04-26T17:19:01.610Z,19.75
2019-04-26T17:21:35.852Z,19.48
2019-04-26T17:24:23.180Z,19.48
2019-04-26T17:26:57.475Z,19.42
2019-04-26T17:29:27.924Z,19.31
2019-04-26T17:31:57.037Z,19.15
2019-04-26T17:34:29.124Z,18.96
2019-04-26T17:37:00.105Z,18.78
2019-04-26T17:39:32.090Z,18.49
2019-04-26T17:42:02.040Z,18.32
2019-04-26T17:44:34.090Z,18.29
2019-04-26T17:47:03.564Z,18.37
2019-04-26T17:49:34.697Z,18.54
2019-04-26T17:52:06.237Z,18.77
2019-04-26T17:54:45.930Z,18.90
2019-04-26T17:57:08.872Z,19.01
2019-04-26T17:59:45.286Z,18.96
2019-04-26T18:02:24.112Z,18.95
2019-04-26T18:04:43.228Z,18.57
2019-04-26T18:07:34.634Z,18.20
2019-04-26T18:09:47.023Z,18.01
2019-04-26T18:12:16.850Z,17.99
2019-04-26T18:14:46.765Z,17.70
2019-04-26T18:17:33.056Z,17.92
2019-04-26T18:20:19.114Z,18.14
2019-04-26T18:23:10.080Z,18.01
2019-04-26T18:25:41.292Z,17.77
2019-04-26T18:28:14.591Z,17.46
2019-04-26T18:30:46.194Z,17.02
2019-04-26T18:33:13.539Z,16.79
2019-04-26T18:35:45.171Z,16.59
2019-04-26T18:38:15.960Z,16.43
2019-04-26T18:41:00.138Z,16.34
2019-04-26T18:43:23.610Z,16.17
2019-04-26T18:46:12.823Z,16.12
2019-04-26T18:48:44.252Z,15.90
2019-04-26T18:51:14.047Z,15.85
2019-04-26T18:54:05.107Z,15.86
2019-04-26T18:56:39.459Z,15.84
2019-04-26T18:59:11.518Z,15.72
2019-04-26T19:01:42.164Z,15.45
2019-04-26T19:04:14.908Z,15.08
2019-04-26T19:06:43.582Z,15.08
2019-04-26T19:09:15.667Z,14.87
2019-04-26T19:11:48.631Z,14.76
2019-04-26T19:14:34.930Z,14.69
2019-04-26T19:17:09.229Z,14.67
2019-04-26T19:19:49.435Z,14.66
2019-04-26T19:22:20.876Z,14.55
2019-04-26T19:24:54.184Z,14.49
2019-04-26T19:27:26.560Z,14.41
2019-04-26T19:29:55.558Z,14.35
2019-04-26T19:32:25.530Z,14.29
2019-04-26T19:34:55.351Z,14.22
2019-04-26T19:37:25.226Z,14.54
2019-04-26T19:39:55.115Z,14.97
2019-04-26T19:42:27.046Z,15.30
2019-04-26T19:45:11.702Z,15.42
2019-04-26T19:47:35.468Z,15.61
2019-04-26T19:50:23.294Z,15.66
2019-04-26T19:52:57.525Z,15.61
2019-04-26T19:55:32.018Z,15.77
2019-04-26T19:58:03.517Z,15.94
2019-04-26T20:00:33.501Z,15.72
2019-04-26T20:03:03.357Z,15.97
2019-04-26T20:05:36.328Z,15.89
2019-04-26T20:08:06.101Z,15.77
2019-04-26T20:10:40.434Z,15.66
2019-04-26T20:13:14.893Z,15.73
2019-04-26T20:15:40.224Z,15.84
2019-04-26T20:18:12.077Z,15.88
2019-04-26T20:20:41.580Z,15.78
2019-04-26T20:23:12.364Z,15.74
2019-04-26T20:25:46.840Z,15.94
2019-04-26T20:28:16.723Z,15.90
2019-04-26T20:30:57.891Z,15.69
2019-04-26T20:33:26.727Z,15.81
2019-04-26T20:36:01.021Z,15.84
2019-04-26T20:38:28.870Z,16.04
2019-04-26T20:40:58.717Z,15.80
2019-04-26T20:43:28.644Z,16.08
2019-04-26T20:46:13.779Z,15.92
2019-04-26T20:48:33.176Z,15.72
2019-04-26T20:51:06.471Z,15.67
2019-04-26T20:53:40.124Z,15.57
2019-04-26T20:56:09.812Z,15.45
2019-04-26T20:58:42.334Z,15.59
2019-04-26T21:01:12.517Z,15.78
2019-04-26T21:03:44.612Z,15.80
2019-04-26T21:06:13.112Z,15.85
2019-04-26T21:08:43.068Z,15.62
2019-04-26T21:11:13.637Z,15.56
2019-04-26T21:13:43.692Z,15.73
2019-04-26T21:16:15.524Z,15.80
2019-04-26T21:18:45.256Z,15.86
2019-04-26T21:21:16.179Z,15.83
2019-04-26T21:23:47.809Z,15.79
2019-04-26T21:26:29.134Z,15.69
2019-04-26T21:29:06.603Z,15.85
2019-04-26T21:31:47.060Z,15.73
2019-04-26T21:34:24.374Z,15.60
2019-04-26T21:37:04.647Z,15.70
2019-04-26T21:39:39.377Z,15.59
2019-04-26T21:42:11.797Z,15.81
2019-04-26T21:44:44.673Z,15.67
2019-04-26T21:47:13.554Z,15.73
2019-04-26T21:49:43.370Z,15.57
2019-04-26T21:52:13.731Z,15.60
2019-04-26T21:54:44.546Z,15.38
2019-04-26T21:57:18.359Z,15.28
2019-04-26T21:59:47.751Z,15.03
2019-04-26T22:02:18.384Z,14.89
2019-04-26T22:04:47.503Z,14.71
2019-04-26T22:07:17.271Z,14.60
2019-04-26T22:09:48.748Z,14.59
2019-04-26T22:12:18.669Z,14.92
2019-04-26T22:14:50.750Z,14.81
2019-04-26T22:17:24.281Z,14.63
2019-04-26T22:19:55.885Z,14.90
2019-04-26T22:22:27.358Z,14.75
2019-04-26T22:24:58.769Z,14.55
2019-04-26T22:27:28.593Z,14.43
2019-04-26T22:29:58.417Z,14.35
2019-04-26T22:32:28.326Z,14.50
2019-04-26T22:34:58.181Z,14.40
2019-04-26T22:37:30.118Z,14.36
2019-04-26T22:39:59.676Z,14.24
2019-04-26T22:42:33.017Z,14.07
2019-04-26T22:45:13.511Z,14.18
2019-04-26T22:47:47.613Z,14.34
2019-04-26T22:50:20.928Z,14.32
2019-04-26T22:52:51.485Z,14.22
2019-04-26T22:55:24.041Z,14.10
2019-04-26T22:57:53.113Z,14.09
2019-04-26T23:00:28.077Z,13.83
2019-04-26T23:02:58.223Z,13.75
2019-04-26T23:05:30.576Z,13.72
2019-04-26T23:08:00.932Z,13.89
2019-04-26T23:10:34.100Z,13.79
2019-04-26T23:13:13.139Z,13.67
2019-04-26T23:16:05.245Z,13.52
2019-04-26T23:18:49.835Z,13.66
2019-04-26T23:21:33.920Z,13.63
2019-04-26T23:24:04.862Z,13.64
2019-04-26T23:26:37.445Z,13.51
2019-04-26T23:29:08.697Z,13.48
2019-04-26T23:31:41.626Z,13.53
2019-04-26T23:34:09.380Z,13.48
2019-04-26T23:36:39.365Z,13.41
2019-04-26T23:39:12.124Z,13.30
2019-04-26T23:41:41.656Z,13.15
2019-04-26T23:44:13.218Z,12.95
2019-04-26T23:46:43.342Z,12.80
2019-04-26T23:49:14.462Z,12.59
2019-04-26T23:51:45.878Z,12.47
2019-04-26T23:54:15.789Z,12.33
2019-04-26T23:56:45.649Z,12.26
2019-04-26T23:59:20.756Z,12.12
